Time;durP1;ratioP1;P1;durP2;ratioP2;P2;SDS_P1;SDS_P2;PMS_P1;PMS_P2;Temp;Humidity;BMP_temperature;BMP_pressure;BME280_temperature;BME280_humidity;BME280_pressure;Samples;Min_cycle;Max_cycle;Signal;HPM_P1;HPM_P2
2022/01/26 00:08:09;;;;;;;59.50;21.80;;;6.30;81.30;;;;;;6006362;23;92329;-73
2022/01/26 00:10:36;;;;;;;53.70;22.30;;;6.20;81.30;;;;;;5982218;23;92101;-73
2022/01/26 00:13:03;;;;;;;56.30;22.88;;;6.20;81.20;;;;;;6006259;23;104337;-73
2022/01/26 00:15:31;;;;;;;52.70;22.88;;;6.20;81.40;;;;;;6006397;23;93853;-73
2022/01/26 00:17:58;;;;;;;55.15;22.02;;;6.20;81.60;;;;;;5980517;23;94848;-73
2022/01/26 00:20:33;;;;;;;53.58;22.25;;;6.20;81.50;;;;;;6006809;23;92496;-73
2022/01/26 00:23:10;;;;;;;58.45;23.52;;;6.20;81.50;;;;;;6006608;23;92999;-73
2022/01/26 00:26:02;;;;;;;61.25;23.15;;;6.20;81.40;;;;;;6006696;23;93024;-73
2022/01/26 00:39:24;;;;;;;55.63;21.38;;;6.10;81.70;;;;;;5952969;23;92535;-71
2022/01/26 00:41:55;;;;;;;54.65;22.85;;;6.10;81.70;;;;;;5981395;23;92865;-70
2022/01/26 00:44:22;;;;;;;61.25;23.77;;;6.10;81.80;;;;;;5979865;23;95397;-71
2022/01/26 00:46:49;;;;;;;62.60;24.00;;;6.10;81.80;;;;;;6006543;23;95084;-71
2022/01/26 00:49:20;;;;;;;57.55;22.80;;;6.10;82.30;;;;;;6006953;23;92425;-70
2022/01/26 00:51:47;;;;;;;53.05;22.83;;;6.10;81.90;;;;;;6006994;23;92444;-71
2022/01/26 00:54:14;;;;;;;51.75;22.40;;;6.10;82.80;;;;;;6005934;23;105247;-71
2022/01/26 00:56:41;;;;;;;52.00;20.80;;;6.10;82.00;;;;;;6006323;23;92863;-70
2022/01/26 00:59:08;;;;;;;56.70;22.48;;;6.10;81.80;;;;;;5994552;23;92430;-70
2022/01/26 01:01:35;;;;;;;56.33;22.80;;;6.10;82.70;;;;;;6005501;23;91787;-70
2022/01/26 01:04:02;;;;;;;54.25;23.00;;;6.00;81.90;;;;;;6006662;23;93032;-70
2022/01/26 01:06:37;;;;;;;52.50;21.80;;;6.00;81.90;;;;;;6004484;23;94193;-71
2022/01/26 01:09:04;;;;;;;60.08;23.38;;;6.00;81.80;;;;;;6004092;23;95237;-71
2022/01/26 01:11:31;;;;;;;53.92;22.20;;;6.00;82.10;;;;;;6006545;23;92398;-70
2022/01/26 01:13:58;;;;;;;56.85;21.77;;;6.00;81.80;;;;;;6006363;23;93105;-70
2022/01/26 01:16:25;;;;;;;53.67;22.40;;;6.00;82.40;;;;;;6005849;23;105285;-70
2022/01/26 01:19:12;;;;;;;58.05;21.98;;;6.00;81.80;;;;;;6006517;23;92681;-71
2022/01/26 01:27:06;;;;;;;56.38;22.25;;;6.00;81.70;;;;;;6007088;23;92825;-71
2022/01/26 01:30:25;;;;;;;60.75;24.23;;;6.00;81.40;;;;;;6006631;23;92797;-71
2022/01/26 01:32:32;;;;;;;57.05;21.90;;;6.00;81.70;;;;;;5998714;23;92488;-70
2022/01/26 01:35:00;;;;;;;58.33;23.27;;;5.90;81.40;;;;;;6005002;23;95335;-70
2022/01/26 01:37:27;;;;;;;65.07;24.52;;;5.90;81.90;;;;;;6006204;23;95226;-70
2022/01/26 01:39:54;;;;;;;57.22;22.95;;;5.90;81.60;;;;;;6006652;23;92393;-71
2022/01/26 01:42:21;;;;;;;61.20;24.42;;;5.90;81.80;;;;;;6006533;23;92451;-71
2022/01/26 01:44:48;;;;;;;64.35;24.95;;;5.90;81.90;;;;;;6006139;23;93287;-71
2022/01/26 01:47:15;;;;;;;59.55;24.58;;;5.90;81.90;;;;;;6006324;23;96275;-70
2022/01/26 01:49:42;;;;;;;62.50;24.80;;;5.90;81.50;;;;;;6006415;23;92700;-71
2022/01/26 01:52:14;;;;;;;52.47;22.20;;;5.90;81.50;;;;;;6006918;23;91669;-71
2022/01/26 01:54:44;;;;;;;56.30;22.50;;;5.90;81.30;;;;;;6005858;23;93113;-70
2022/01/26 01:57:11;;;;;;;60.88;23.92;;;5.90;81.60;;;;;;6004796;23;94022;-71
2022/01/26 01:59:38;;;;;;;60.30;23.38;;;5.90;81.40;;;;;;6004291;23;94877;-70
2022/01/26 02:02:05;;;;;;;64.68;24.45;;;5.90;81.50;;;;;;6006459;23;92340;-70
2022/01/26 02:04:33;;;;;;;58.83;23.23;;;5.80;81.30;;;;;;6006012;23;92926;-71
2022/01/26 02:07:00;;;;;;;59.95;23.00;;;5.80;81.40;;;;;;6006067;23;92864;-70
2022/01/26 02:09:27;;;;;;;63.47;24.48;;;5.80;81.30;;;;;;6005963;23;98939;-70
2022/01/26 02:11:56;;;;;;;54.13;21.88;;;5.80;81.40;;;;;;6006514;23;92405;-70
2022/01/26 03:00:12;;;;;;;53.65;21.52;;;5.60;81.70;;;;;;5895412;23;94327;-70
2022/01/26 03:05:16;;;;;;;59.45;22.85;;;5.60;81.50;;;;;;5979515;23;92338;-71
2022/01/26 03:07:50;;;;;;;61.40;25.15;;;5.60;81.20;;;;;;6006867;23;93001;-70
2022/01/26 03:10:29;;;;;;;60.03;21.63;;;5.60;81.20;;;;;;6007597;23;92780;-70
2022/01/26 03:13:03;;;;;;;58.63;23.23;;;5.60;81.70;;;;;;6007097;23;92385;-70
2022/01/26 03:15:39;;;;;;;62.87;24.10;;;5.60;81.70;;;;;;5981864;23;92479;-71
2022/01/26 03:20:54;;;;;;;58.58;23.70;;;5.60;81.30;;;;;;6006796;23;95263;-70
2022/01/26 03:34:03;;;;;;;60.63;22.52;;;5.50;81.60;;;;;;6006936;23;92375;-70
2022/01/26 03:36:37;;;;;;;50.72;20.08;;;5.50;81.50;;;;;;6007626;23;92020;-70
2022/01/26 03:39:09;;;;;;;61.30;23.85;;;5.50;81.60;;;;;;6006885;23;93120;-70
2022/01/26 03:41:47;;;;;;;56.70;21.92;;;5.50;81.70;;;;;;6007053;23;92720;-70
2022/01/26 03:44:15;;;;;;;57.60;22.17;;;5.50;81.90;;;;;;6005879;23;94668;-71
2022/01/26 03:46:43;;;;;;;60.67;21.67;;;5.50;81.70;;;;;;6006881;23;92487;-70
2022/01/26 03:49:11;;;;;;;66.85;22.48;;;5.50;81.70;;;;;;5980537;23;110586;-70
2022/01/26 03:51:40;;;;;;;59.80;23.23;;;5.50;81.60;;;;;;5957589;23;94183;-70
2022/01/26 03:54:08;;;;;;;66.50;23.42;;;5.50;81.80;;;;;;6007043;23;92447;-70
2022/01/26 03:56:36;;;;;;;65.28;22.77;;;5.50;81.80;;;;;;5981585;23;92390;-70
2022/01/26 03:59:04;;;;;;;61.10;23.33;;;5.50;82.30;;;;;;6006043;23;97372;-70
2022/01/26 04:01:32;;;;;;;63.33;23.88;;;5.50;82.00;;;;;;6006905;23;92697;-71
2022/01/26 04:04:00;;;;;;;59.90;23.08;;;5.50;82.00;;;;;;6006593;23;92497;-71
2022/01/26 04:06:28;;;;;;;62.75;24.63;;;5.50;82.00;;;;;;5981356;23;92596;-71
2022/01/26 04:08:55;;;;;;;61.70;21.95;;;5.50;82.40;;;;;;6005313;23;95515;-71
2022/01/26 04:14:00;;;;;;;61.90;22.95;;;5.40;81.80;;;;;;6006831;23;92448;-70
2022/01/26 04:16:27;;;;;;;66.13;25.60;;;5.40;81.50;;;;;;6006339;23;92416;-70
2022/01/26 04:18:56;;;;;;;63.88;22.55;;;5.40;81.80;;;;;;6006409;23;93221;-70
2022/01/26 04:23:59;;;;;;;60.63;23.05;;;5.50;81.70;;;;;;5981984;23;92356;-71
2022/01/26 04:26:33;;;;;;;63.35;23.02;;;5.40;82.00;;;;;;6007566;23;91568;-70
2022/01/26 04:29:06;;;;;;;67.95;23.70;;;5.40;81.70;;;;;;6006544;23;92978;-70
2022/01/26 04:31:33;;;;;;;60.17;22.88;;;5.40;81.60;;;;;;6006897;23;92753;-70
2022/01/26 04:34:00;;;;;;;62.17;22.92;;;5.40;81.70;;;;;;6004471;23;103917;-70
2022/01/26 04:36:34;;;;;;;63.35;23.42;;;5.40;81.40;;;;;;5981193;23;92407;-70
2022/01/26 04:39:06;;;;;;;62.72;22.92;;;5.40;81.50;;;;;;6006685;23;92930;-70
2022/01/26 04:41:59;;;;;;;64.78;23.10;;;5.40;81.30;;;;;;5981339;23;93967;-70
2022/01/26 04:44:24;;;;;;;63.45;23.05;;;5.40;81.40;;;;;;6006641;23;92397;-70
2022/01/26 04:46:53;;;;;;;62.83;22.33;;;5.40;81.40;;;;;;5980816;23;92512;-70
2022/01/26 04:49:20;;;;;;;64.53;22.30;;;5.40;81.10;;;;;;5981453;23;93110;-70
2022/01/26 04:51:47;;;;;;;56.45;21.75;;;5.40;81.70;;;;;;5981381;23;94030;-70
2022/01/26 04:54:14;;;;;;;63.97;23.75;;;5.40;81.50;;;;;;5980735;23;92425;-71
2022/01/26 04:56:41;;;;;;;63.60;24.55;;;5.40;81.50;;;;;;6006773;23;92401;-70
2022/01/26 04:59:08;;;;;;;59.10;22.05;;;5.40;81.60;;;;;;5992334;23;96479;-70
2022/01/26 05:01:35;;;;;;;66.05;25.13;;;5.30;81.60;;;;;;6006260;23;95113;-70
2022/01/26 05:04:03;;;;;;;70.43;25.85;;;5.30;81.50;;;;;;6004390;23;98922;-70
2022/01/26 05:06:30;;;;;;;65.85;22.80;;;5.30;81.50;;;;;;6006801;23;92429;-70
2022/01/26 05:08:57;;;;;;;66.78;24.45;;;5.40;81.80;;;;;;6006281;23;93003;-70
2022/01/26 05:14:20;;;;;;;61.92;22.73;;;5.40;81.40;;;;;;5993640;23;92468;-71
2022/01/26 05:16:47;;;;;;;63.80;23.90;;;5.30;81.60;;;;;;6005389;23;91658;-70
2022/01/26 05:19:14;;;;;;;55.47;20.23;;;5.40;81.40;;;;;;6006258;23;93181;-71
2022/01/26 05:21:42;;;;;;;64.65;22.52;;;5.40;81.20;;;;;;6006603;23;92924;-70
2022/01/26 05:24:12;;;;;;;59.40;22.73;;;5.40;81.50;;;;;;6004941;23;95213;-71
2022/01/26 05:26:40;;;;;;;63.20;22.80;;;5.30;81.30;;;;;;6005164;23;92464;-71
2022/01/26 05:29:11;;;;;;;60.70;21.88;;;5.30;80.90;;;;;;6006314;23;93039;-70
2022/01/26 05:31:38;;;;;;;65.07;22.48;;;5.30;81.10;;;;;;6006470;23;92804;-71
2022/01/26 05:34:06;;;;;;;58.95;22.55;;;5.40;81.10;;;;;;6006159;23;92654;-70
2022/01/26 05:36:34;;;;;;;60.88;23.20;;;5.40;81.10;;;;;;6006028;23;103178;-70
2022/01/26 05:39:01;;;;;;;65.68;23.85;;;5.30;81.30;;;;;;6004296;23;94083;-70
2022/01/26 05:41:28;;;;;;;64.93;25.52;;;5.30;81.50;;;;;;6006674;23;92817;-71
2022/01/26 05:43:55;;;;;;;66.70;22.13;;;5.30;80.80;;;;;;6006256;23;92659;-71
2022/01/26 05:46:33;;;;;;;65.93;21.98;;;5.30;81.00;;;;;;6006469;23;92418;-71
2022/01/26 05:49:00;;;;;;;65.00;23.83;;;5.30;81.00;;;;;;6003150;23;95373;-71
2022/01/26 05:51:31;;;;;;;62.65;23.30;;;5.30;81.00;;;;;;6004679;23;95690;-70
2022/01/26 05:53:58;;;;;;;58.83;22.13;;;5.30;81.40;;;;;;6004752;23;92822;-70
2022/01/26 05:56:25;;;;;;;64.60;25.23;;;5.30;81.00;;;;;;6004865;23;92503;-70
2022/01/26 05:58:52;;;;;;;61.33;23.63;;;5.30;81.30;;;;;;6004274;23;94067;-70
2022/01/26 06:01:20;;;;;;;65.65;23.00;;;5.30;81.60;;;;;;6004165;23;93960;-70
2022/01/26 06:03:47;;;;;;;59.05;21.95;;;5.30;81.70;;;;;;6004448;23;94904;-70
2022/01/26 06:06:16;;;;;;;59.50;22.98;;;5.30;81.10;;;;;;6006826;23;91730;-70
2022/01/26 06:08:43;;;;;;;65.68;23.67;;;5.30;81.20;;;;;;6007569;23;92494;-70
2022/01/26 06:11:10;;;;;;;67.05;23.52;;;5.30;81.00;;;;;;6007107;23;92942;-71
2022/01/26 06:13:37;;;;;;;57.90;21.27;;;5.30;81.30;;;;;;6006035;23;94859;-70
2022/01/26 06:16:04;;;;;;;54.53;20.67;;;5.30;81.10;;;;;;6007358;23;92541;-70
2022/01/26 06:18:31;;;;;;;57.22;20.30;;;5.30;80.90;;;;;;6007215;23;93983;-73
2022/01/26 06:20:58;;;;;;;59.63;21.33;;;5.30;80.90;;;;;;6005902;23;94582;-73
2022/01/26 06:23:26;;;;;;;58.90;22.20;;;5.30;80.90;;;;;;6005722;23;92571;-73
2022/01/26 06:25:55;;;;;;;52.60;21.15;;;5.20;81.30;;;;;;6005703;23;92908;-73
2022/01/26 06:28:24;;;;;;;59.22;21.65;;;5.20;80.90;;;;;;6005258;23;92868;-73
2022/01/26 06:31:02;;;;;;;56.47;22.75;;;5.30;80.80;;;;;;6006894;23;108501;-73
2022/01/26 06:33:32;;;;;;;53.80;18.30;;;5.20;81.00;;;;;;6005630;23;92469;-73
2022/01/26 06:36:00;;;;;;;56.13;21.38;;;5.20;80.80;;;;;;6005259;23;92389;-73
2022/01/26 06:38:30;;;;;;;49.70;19.80;;;5.30;80.90;;;;;;6003912;23;97649;-73
2022/01/26 06:40:58;;;;;;;51.63;20.02;;;5.30;80.80;;;;;;6006976;23;95214;-73
2022/01/26 06:43:28;;;;;;;57.40;21.77;;;5.20;80.30;;;;;;6006763;23;92431;-73
2022/01/26 06:46:05;;;;;;;57.88;20.35;;;5.20;80.70;;;;;;6005433;23;92516;-73
2022/01/26 06:51:10;;;;;;;58.13;19.65;;;5.20;80.60;;;;;;6004853;23;94244;-71
2022/01/26 06:53:37;;;;;;;58.22;21.45;;;5.20;80.20;;;;;;6005198;23;92575;-71
2022/01/26 06:56:04;;;;;;;50.33;18.40;;;5.20;80.50;;;;;;6005697;23;92402;-71
2022/01/26 06:58:31;;;;;;;55.67;20.85;;;5.20;80.70;;;;;;6003329;23;93078;-70
2022/01/26 07:00:58;;;;;;;53.28;18.90;;;5.20;80.60;;;;;;6005728;23;92953;-68
2022/01/26 07:03:25;;;;;;;59.17;21.83;;;5.20;80.60;;;;;;6005148;23;100141;-67
2022/01/26 07:05:52;;;;;;;55.55;20.30;;;5.20;80.30;;;;;;6006741;23;92395;-67
2022/01/26 07:08:19;;;;;;;48.83;20.10;;;5.20;80.40;;;;;;6006580;23;93110;-67
2022/01/26 07:10:48;;;;;;;51.45;18.63;;;5.20;80.00;;;;;;5981915;23;93989;-67
2022/01/26 07:13:16;;;;;;;53.28;19.00;;;5.20;80.00;;;;;;6007385;23;92707;-67
2022/01/26 07:21:25;;;;;;;50.38;19.35;;;5.20;80.40;;;;;;6007204;23;92865;-67
2022/01/26 07:23:54;;;;;;;46.25;17.20;;;5.20;79.90;;;;;;6007152;23;92327;-67
2022/01/26 07:26:22;;;;;;;44.95;17.48;;;5.20;80.10;;;;;;6006051;23;100631;-67
2022/01/26 07:28:49;;;;;;;52.75;18.60;;;5.20;81.40;;;;;;5979697;23;98074;-67
2022/01/26 07:31:16;;;;;;;49.92;18.40;;;5.20;80.20;;;;;;6006702;23;95104;-67
2022/01/26 07:33:43;;;;;;;53.00;18.95;;;5.20;80.50;;;;;;6006945;23;92349;-67
2022/01/26 07:36:10;;;;;;;47.63;17.52;;;5.20;80.10;;;;;;5980783;23;92928;-68
2022/01/26 07:38:37;;;;;;;49.92;17.88;;;5.20;80.20;;;;;;5981507;23;93213;-67
2022/01/26 07:41:04;;;;;;;51.10;20.30;;;5.20;80.10;;;;;;6006794;23;92853;-68
2022/01/26 07:43:31;;;;;;;51.78;18.23;;;5.20;80.70;;;;;;6006481;23;92323;-67
2022/01/26 07:45:59;;;;;;;48.58;19.45;;;5.20;81.00;;;;;;6007433;23;91581;-67
2022/01/26 07:48:26;;;;;;;54.20;19.27;;;5.30;80.20;;;;;;6006425;23;92382;-68
2022/01/26 07:50:55;;;;;;;56.03;20.85;;;5.30;80.50;;;;;;6006653;23;92489;-67
2022/01/26 07:53:22;;;;;;;56.47;20.88;;;5.30;80.80;;;;;;5980097;23;94815;-68
2022/01/26 07:55:49;;;;;;;49.97;19.50;;;5.30;80.50;;;;;;6006748;23;92405;-68
2022/01/26 07:58:18;;;;;;;56.08;20.70;;;5.30;80.40;;;;;;6005661;23;105584;-67
2022/01/26 08:00:46;;;;;;;52.72;18.60;;;5.30;80.30;;;;;;6006611;23;92795;-67
2022/01/26 08:03:13;;;;;;;55.15;21.50;;;5.30;80.40;;;;;;6006696;23;92318;-68
2022/01/26 08:05:40;;;;;;;52.00;20.48;;;5.30;80.70;;;;;;6007047;23;92501;-67
2022/01/26 08:08:08;;;;;;;50.90;20.52;;;5.40;80.30;;;;;;6006786;23;93203;-67
2022/01/26 08:10:35;;;;;;;53.83;22.45;;;5.40;80.00;;;;;;6006656;23;93967;-68
2022/01/26 08:13:03;;;;;;;56.55;23.30;;;5.30;80.00;;;;;;6006962;23;92427;-68
2022/01/26 08:15:30;;;;;;;53.53;21.45;;;5.40;79.40;;;;;;6004456;23;92526;-67
2022/01/26 08:17:58;;;;;;;54.38;21.90;;;5.40;79.70;;;;;;6003461;23;95674;-68
2022/01/26 08:20:25;;;;;;;55.45;20.65;;;5.40;80.00;;;;;;6004771;23;95226;-67
2022/01/26 08:22:55;;;;;;;51.28;21.40;;;5.40;80.30;;;;;;6004711;23;92451;-67
2022/01/26 08:25:22;;;;;;;57.05;21.88;;;5.40;80.70;;;;;;6004919;23;92580;-67
2022/01/26 08:28:55;;;;;;;51.10;21.98;;;5.40;80.20;;;;;;6005661;23;100789;-67
2022/01/26 08:30:46;;;;;;;56.15;21.60;;;5.40;80.30;;;;;;6005328;23;92800;-68
2022/01/26 08:33:13;;;;;;;60.53;22.05;;;5.40;79.80;;;;;;6005083;23;92460;-68
2022/01/26 08:35:41;;;;;;;54.70;22.42;;;5.50;80.20;;;;;;6006504;23;99535;-67
2022/01/26 08:38:08;;;;;;;60.90;22.95;;;5.50;79.50;;;;;;6004581;23;94165;-68
2022/01/26 08:40:35;;;;;;;56.00;21.98;;;5.50;79.40;;;;;;6006411;23;92856;-68
2022/01/26 08:43:03;;;;;;;57.13;23.27;;;5.50;79.80;;;;;;6005310;23;94804;-68
2022/01/26 08:45:30;;;;;;;64.60;24.90;;;5.50;79.60;;;;;;6006547;23;92478;-68
2022/01/26 08:47:57;;;;;;;63.85;26.48;;;5.50;79.50;;;;;;6006504;23;93103;-68
2022/01/26 08:50:24;;;;;;;65.10;25.08;;;5.50;79.80;;;;;;6004252;23;93941;-68
2022/01/26 08:52:51;;;;;;;63.33;25.42;;;5.50;79.90;;;;;;6006727;23;92399;-68
2022/01/26 08:55:18;;;;;;;65.38;24.75;;;5.60;79.60;;;;;;6006593;23;92296;-68
2022/01/26 08:57:45;;;;;;;66.57;27.08;;;5.60;79.70;;;;;;6006588;23;93043;-68
2022/01/26 09:00:13;;;;;;;63.42;26.73;;;5.60;79.70;;;;;;5998631;23;102844;-68
2022/01/26 09:02:40;;;;;;;67.55;27.70;;;5.60;80.20;;;;;;6006325;23;92428;-67
2022/01/26 09:05:08;;;;;;;62.35;25.75;;;5.60;80.20;;;;;;6006791;23;92790;-67
2022/01/26 09:07:36;;;;;;;73.63;28.17;;;5.60;80.30;;;;;;6002864;23;96595;-68
2022/01/26 09:10:06;;;;;;;66.68;28.33;;;5.60;80.60;;;;;;6004418;23;96669;-67
2022/01/26 09:12:36;;;;;;;69.78;27.73;;;5.60;80.80;;;;;;6004453;23;92413;-68
2022/01/26 09:15:04;;;;;;;71.20;28.60;;;5.70;80.70;;;;;;6006582;23;92764;-67
2022/01/26 09:17:33;;;;;;;70.68;28.67;;;5.70;80.30;;;;;;6006332;23;92467;-68
2022/01/26 09:20:03;;;;;;;79.07;32.72;;;5.70;80.20;;;;;;6006490;23;92843;-68
2022/01/26 09:22:30;;;;;;;73.80;31.35;;;5.70;80.50;;;;;;6006507;23;92484;-68
2022/01/26 09:24:57;;;;;;;77.00;31.33;;;5.80;80.40;;;;;;5980830;23;106775;-68
2022/01/26 09:27:25;;;;;;;82.95;32.53;;;5.80;80.90;;;;;;6006127;23;93129;-68
2022/01/26 09:29:52;;;;;;;78.68;32.78;;;5.80;80.60;;;;;;6004722;23;93026;-68
2022/01/26 09:32:19;;;;;;;78.78;31.98;;;5.80;81.00;;;;;;6005069;23;94801;-67
2022/01/26 09:34:46;;;;;;;74.55;32.65;;;5.90;80.60;;;;;;6006273;23;92901;-68
2022/01/26 09:37:16;;;;;;;78.75;32.55;;;5.80;80.40;;;;;;6006057;23;93074;-67
2022/01/26 09:39:45;;;;;;;86.20;34.53;;;5.90;81.10;;;;;;6005811;23;92883;-67
2022/01/26 09:42:15;;;;;;;83.05;33.70;;;5.90;80.70;;;;;;6006200;23;92302;-67
2022/01/26 09:44:42;;;;;;;86.63;34.97;;;6.00;80.00;;;;;;6003907;23;92510;-67
2022/01/26 09:47:10;;;;;;;85.65;34.15;;;6.00;80.00;;;;;;6006120;23;93039;-66
2022/01/26 09:49:37;;;;;;;81.03;32.25;;;6.00;79.70;;;;;;6004627;23;94040;-67
2022/01/26 09:52:21;;;;;;;90.75;34.75;;;6.00;79.70;;;;;;6006411;23;92358;-67
2022/01/26 09:54:48;;;;;;;85.53;34.88;;;6.10;80.10;;;;;;6006100;23;92638;-67
2022/01/26 09:57:28;;;;;;;87.45;35.08;;;6.10;80.00;;;;;;6004513;23;97634;-67
2022/01/26 09:59:56;;;;;;;88.85;35.75;;;6.10;80.00;;;;;;6006032;23;95257;-67
2022/01/26 10:02:29;;;;;;;89.63;38.13;;;6.10;79.80;;;;;;6006720;23;92365;-67
2022/01/26 10:05:04;;;;;;;95.05;38.25;;;6.20;79.80;;;;;;6006875;23;92454;-67
2022/01/26 10:15:38;;;;;;;90.38;37.78;;;6.40;79.90;;;;;;6006687;23;91758;-66
2022/01/26 10:18:15;;;;;;;84.22;36.70;;;6.40;79.40;;;;;;6006435;23;93987;-67
2022/01/26 10:20:57;;;;;;;92.05;39.05;;;6.40;79.30;;;;;;6006412;23;92907;-67
2022/01/26 10:23:29;;;;;;;91.45;37.90;;;6.50;79.30;;;;;;6005368;23;95089;-67
2022/01/26 10:26:18;;;;;;;88.45;38.30;;;6.40;79.50;;;;;;6006095;23;92491;-67
2022/01/26 10:28:57;;;;;;;90.53;37.78;;;6.50;79.20;;;;;;6005583;23;93044;-66
2022/01/26 10:31:31;;;;;;;88.47;36.95;;;6.60;79.20;;;;;;6005748;23;92866;-66
2022/01/26 10:34:10;;;;;;;94.05;39.08;;;6.60;79.40;;;;;;6005822;23;92463;-66
2022/01/26 10:36:47;;;;;;;88.93;38.83;;;6.50;79.10;;;;;;6005283;23;92427;-66
2022/01/26 10:42:07;;;;;;;89.97;37.30;;;6.60;79.40;;;;;;6006110;23;92949;-66
2022/01/26 10:45:07;;;;;;;94.95;39.72;;;6.60;79.10;;;;;;6005067;23;92363;-67
2022/01/26 10:47:39;;;;;;;88.30;38.08;;;6.60;79.10;;;;;;6005222;23;92467;-66
2022/01/26 10:50:33;;;;;;;88.32;38.05;;;6.60;78.70;;;;;;6003918;23;96474;-66
2022/01/26 10:53:11;;;;;;;;;;;6.70;78.80;;;;;;6007369;23;96548;-67
2022/01/26 10:55:39;;;;;;;87.65;34.97;;;6.50;78.90;;;;;;6031377;23;92470;-66
2022/01/26 10:58:07;;;;;;;90.60;37.50;;;6.60;79.40;;;;;;6006773;23;92528;-67
2022/01/26 11:00:37;;;;;;;90.43;41.35;;;6.60;79.30;;;;;;6006515;23;93293;-66
2022/01/26 11:03:08;;;;;;;91.05;39.00;;;6.70;79.50;;;;;;6006892;23;92987;-67
2022/01/26 11:05:35;;;;;;;93.30;40.22;;;6.70;79.00;;;;;;6007703;23;92541;-66
2022/01/26 11:08:03;;;;;;;87.20;37.38;;;6.70;78.80;;;;;;6007407;23;106116;-66
2022/01/26 11:10:36;;;;;;;88.53;35.20;;;6.70;78.50;;;;;;6007447;23;94782;-67
2022/01/26 11:13:04;;;;;;;86.43;37.53;;;6.80;78.50;;;;;;6007612;23;92688;-66
2022/01/26 11:15:31;;;;;;;88.90;38.15;;;6.80;78.50;;;;;;6005779;23;94796;-67
2022/01/26 11:18:08;;;;;;;88.65;36.75;;;6.80;78.40;;;;;;6007445;23;92416;-67
2022/01/26 11:20:50;;;;;;;81.93;34.92;;;6.90;78.20;;;;;;6007249;23;93010;-67
2022/01/26 11:23:19;;;;;;;79.97;35.83;;;6.90;78.70;;;;;;5981614;23;93927;-67
2022/01/26 11:25:48;;;;;;;81.85;34.28;;;6.90;78.20;;;;;;5982001;23;92795;-67
2022/01/26 11:28:24;;;;;;;87.88;37.22;;;6.90;78.20;;;;;;5981960;23;92492;-67
2022/01/26 11:30:54;;;;;;;80.78;33.13;;;7.00;78.10;;;;;;5981465;23;94190;-66
2022/01/26 11:33:25;;;;;;;82.30;36.55;;;7.00;78.50;;;;;;6007808;23;92891;-67
2022/01/26 11:35:54;;;;;;;85.90;36.50;;;7.00;78.10;;;;;;5981478;23;93697;-67
2022/01/26 11:46:26;;;;;;;78.93;34.38;;;7.00;78.00;;;;;;6007717;23;92288;-67
2022/01/26 11:49:02;;;;;;;83.93;34.55;;;7.00;78.10;;;;;;6006943;23;98222;-67
2022/01/26 11:51:49;;;;;;;83.35;36.38;;;7.10;78.00;;;;;;6007577;23;92929;-67
2022/01/26 11:54:28;;;;;;;80.60;36.05;;;7.10;78.00;;;;;;6007523;23;92818;-67
2022/01/26 11:57:04;;;;;;;77.88;34.92;;;7.10;78.50;;;;;;6007219;23;93121;-67
2022/01/26 11:59:34;;;;;;;85.65;35.20;;;7.20;78.50;;;;;;6008002;23;92036;-67
2022/01/26 12:02:08;;;;;;;83.82;34.03;;;7.20;78.10;;;;;;5982366;23;92562;-67
2022/01/26 12:04:37;;;;;;;82.45;33.70;;;7.30;78.30;;;;;;6007368;23;92966;-67
2022/01/26 12:07:19;;;;;;;79.93;35.72;;;7.40;78.10;;;;;;6005815;23;94786;-67
2022/01/26 12:09:47;;;;;;;84.10;33.65;;;7.50;77.90;;;;;;6007352;23;92378;-67
2022/01/26 12:12:22;;;;;;;77.55;33.10;;;7.50;78.00;;;;;;6007184;23;92996;-67
2022/01/26 12:15:00;;;;;;;76.30;32.65;;;7.50;77.90;;;;;;6006943;23;92801;-66
2022/01/26 12:17:32;;;;;;;74.20;32.75;;;7.50;78.30;;;;;;5958419;23;92889;-67
2022/01/26 12:45:24;;;;;;;68.05;28.23;;;7.60;77.80;;;;;;6007131;23;93086;-66
2022/01/26 12:47:58;;;;;;;67.47;31.95;;;7.60;77.90;;;;;;6006877;23;93415;-67
2022/01/26 12:50:28;;;;;;;74.45;31.73;;;7.50;78.10;;;;;;6007433;23;92385;-66
2022/01/26 12:52:57;;;;;;;66.70;29.50;;;7.50;78.10;;;;;;6007365;23;91697;-67
2022/01/26 12:55:31;;;;;;;74.28;31.13;;;7.60;78.30;;;;;;6006863;23;92942;-67
2022/01/26 12:57:58;;;;;;;;;;;7.60;78.10;;;;;;6006999;23;92797;-67
2022/01/26 13:00:36;;;;;;;70.35;28.40;;;7.60;77.70;;;;;;6052643;23;95214;-66
2022/01/26 13:03:12;;;;;;;66.93;29.50;;;7.60;77.90;;;;;;6006888;23;92566;-67
2022/01/26 13:05:40;;;;;;;70.60;31.42;;;7.60;77.90;;;;;;6005375;23;94048;-67
2022/01/26 13:08:10;;;;;;;65.05;28.23;;;7.60;78.10;;;;;;6005242;23;92442;-67
2022/01/26 13:10:38;;;;;;;66.55;30.35;;;7.60;78.30;;;;;;6007171;23;92355;-66
2022/01/26 13:13:14;;;;;;;67.43;27.63;;;7.60;78.20;;;;;;6006837;23;92465;-66
2022/01/26 13:15:48;;;;;;;72.05;29.50;;;7.60;78.10;;;;;;6006510;23;93023;-67
2022/01/26 13:18:21;;;;;;;;;;;7.50;78.60;;;;;;6008048;23;92877;-67
2022/01/26 14:00:12;;;;;;;63.63;27.33;;;7.70;79.00;;;;;;6004024;23;94287;-67
2022/01/26 14:02:39;;;;;;;58.30;26.30;;;7.70;79.20;;;;;;6006863;23;92467;-67
2022/01/26 14:05:07;;;;;;;58.15;26.13;;;7.70;79.20;;;;;;6004945;23;92423;-67
2022/01/26 14:07:34;;;;;;;59.35;26.90;;;7.70;79.30;;;;;;6006743;23;93001;-66
2022/01/26 14:10:05;;;;;;;59.80;25.88;;;7.70;78.80;;;;;;6006652;23;92801;-67
2022/01/26 14:12:37;;;;;;;55.00;26.90;;;7.70;79.00;;;;;;6006980;23;92354;-67
2022/01/26 14:15:07;;;;;;;59.88;25.42;;;7.70;79.40;;;;;;6006681;23;92356;-66
2022/01/26 14:27:47;;;;;;;56.35;26.92;;;7.80;78.60;;;;;;6007578;23;93086;-67
2022/01/26 14:30:38;;;;;;;55.33;25.67;;;7.80;79.00;;;;;;6005816;23;94498;-67
2022/01/26 14:33:32;;;;;;;53.28;23.95;;;7.80;79.00;;;;;;6007541;23;92359;-66
2022/01/26 14:55:15;;;;;;;49.75;23.13;;;7.80;79.00;;;;;;6008076;23;92394;-67
2022/01/26 15:20:43;;;;;;;47.25;23.08;;;7.80;78.80;;;;;;6007512;23;92446;-67
2022/01/26 15:30:00;;;;;;;47.40;23.40;;;7.80;79.30;;;;;;6007607;23;92314;-67
2022/01/26 15:40:02;;;;;;;56.13;25.65;;;7.70;79.90;;;;;;6007589;23;92391;-66
2022/01/26 15:44:23;;;;;;;51.55;23.13;;;7.60;80.00;;;;;;6007528;23;93066;-67
2022/01/26 16:05:54;;;;;;;54.03;24.67;;;7.50;80.10;;;;;;6005347;23;95406;-67
2022/01/26 16:08:29;;;;;;;58.35;26.83;;;7.40;80.20;;;;;;6006574;23;95276;-66
2022/01/26 16:16:56;;;;;;;53.60;27.42;;;7.40;81.10;;;;;;6007219;23;92938;-67
2022/01/26 16:52:28;;;;;;;55.15;23.88;;;7.40;82.20;;;;;;6007070;23;92322;-66
2022/01/26 18:04:04;;;;;;;52.78;23.88;;;7.40;82.60;;;;;;6005062;23;94774;-67
2022/01/26 18:17:46;;;;;;;48.85;23.67;;;7.50;82.90;;;;;;6009407;23;93067;-67
2022/01/26 18:26:05;;;;;;;49.80;24.10;;;7.50;82.70;;;;;;6009666;23;92377;-67
2022/01/26 18:40:00;;;;;;;45.38;22.13;;;7.50;82.80;;;;;;5984074;23;94428;-67
2022/01/26 18:50:51;;;;;;;44.33;21.73;;;7.60;82.80;;;;;;6007770;23;95474;-67
2022/01/26 18:53:18;;;;;;;43.55;21.73;;;7.60;82.60;;;;;;6009420;23;95121;-67
2022/01/26 18:55:45;;;;;;;40.80;22.00;;;7.60;82.50;;;;;;5984314;23;92887;-67
2022/01/26 18:58:12;;;;;;;45.53;21.48;;;7.70;82.60;;;;;;6009562;23;92323;-67
2022/01/26 19:00:44;;;;;;;45.65;23.52;;;7.70;83.50;;;;;;6008671;23;92856;-67
2022/01/26 19:03:12;;;;;;;47.03;22.90;;;7.70;82.90;;;;;;6009572;23;92822;-67
2022/01/26 19:05:40;;;;;;;44.85;22.15;;;7.70;82.40;;;;;;6008399;23;99967;-67
2022/01/26 19:08:07;;;;;;;35.40;18.13;;;7.70;82.60;;;;;;6009810;23;91906;-67
2022/01/26 19:10:34;;;;;;;43.72;20.48;;;7.70;82.60;;;;;;5983946;23;92926;-67
2022/01/26 19:13:01;;;;;;;44.20;22.27;;;7.70;82.80;;;;;;6008105;23;92859;-67
2022/01/26 19:15:31;;;;;;;40.05;21.90;;;7.70;82.90;;;;;;6006322;23;95200;-67
2022/01/26 19:18:04;;;;;;;41.30;20.75;;;7.70;83.30;;;;;;5981784;23;92426;-70
2022/01/26 19:23:26;;;;;;;41.75;21.70;;;7.80;82.80;;;;;;5981596;23;94106;-67
2022/01/26 19:26:03;;;;;;;41.25;21.67;;;7.80;82.90;;;;;;6007489;23;92482;-67
2022/01/26 19:28:36;;;;;;;38.92;20.15;;;7.80;82.80;;;;;;6007343;23;92866;-67
2022/01/26 19:46:11;;;;;;;42.83;21.10;;;7.80;82.70;;;;;;6007216;23;95354;-67
2022/01/26 19:53:10;;;;;;;37.00;18.90;;;7.90;82.70;;;;;;5982138;23;94148;-67
2022/01/26 19:55:37;;;;;;;46.78;21.60;;;7.80;82.70;;;;;;6007429;23;92763;-68
2022/01/26 19:58:04;;;;;;;42.10;19.65;;;7.90;82.90;;;;;;6007597;23;92860;-67
2022/01/26 20:00:32;;;;;;;37.42;19.60;;;7.90;82.70;;;;;;6006939;23;107971;-67
2022/01/26 20:03:00;;;;;;;34.80;19.48;;;7.90;82.50;;;;;;6007312;23;92918;-67
2022/01/26 20:05:32;;;;;;;40.83;21.33;;;7.90;82.40;;;;;;6007274;23;93799;-67
2022/01/26 20:08:05;;;;;;;43.60;20.45;;;7.90;82.60;;;;;;5980430;23;94817;-67
2022/01/26 20:10:34;;;;;;;37.13;19.52;;;7.90;82.50;;;;;;6007760;23;92304;-68
2022/01/26 20:13:04;;;;;;;43.97;24.52;;;7.90;82.70;;;;;;6007230;23;92932;-67